createdAt,value
2023-01-02T00:04:14.383Z,14.63
2023-01-02T00:09:13.276Z,15.68
2023-01-02T00:14:12.298Z,12.90
2023-01-02T00:19:12.458Z,14.25
2023-01-02T00:24:11.681Z,13.25
2023-01-02T00:29:10.556Z,11.75
2023-01-02T00:34:09.368Z,12.98
2023-01-02T00:39:09.597Z,14.07
2023-01-02T00:44:08.344Z,13.68
2023-01-02T00:49:07.309Z,10.60
2023-01-02T00:54:06.266Z,12.38
2023-01-02T00:59:06.433Z,13.43
2023-01-02T01:04:05.692Z,16.42
2023-01-02T01:09:04.776Z,14.10
2023-01-02T01:14:03.518Z,11.68
2023-01-02T01:19:03.978Z,12.70
2023-01-02T01:24:02.840Z,13.15
2023-01-02T01:29:02.094Z,15.70
2023-01-02T01:34:00.962Z,11.43
2023-01-02T01:39:01.188Z,11.35
2023-01-02T01:44:01.460Z,12.20
2023-01-02T01:49:06.905Z,13.38
2023-01-02T01:54:11.161Z,11.02
2023-01-02T01:59:12.134Z,10.20
2023-01-02T02:04:11.750Z,11.48
2023-01-02T02:09:17.801Z,10.85
2023-01-02T02:14:16.744Z,8.70
2023-01-02T02:19:50.353Z,9.65
2023-01-02T02:25:19.386Z,10.55
2023-01-02T02:30:21.480Z,11.60
2023-01-02T02:35:31.599Z,12.02
2023-01-02T02:40:45.758Z,11.57
2023-01-02T02:45:56.008Z,16.15
2023-01-02T02:51:02.392Z,12.07
2023-01-02T02:56:04.612Z,10.88
2023-01-02T03:01:07.227Z,15.70
2023-01-02T03:06:20.396Z,10.90
2023-01-02T03:11:19.325Z,10.10
2023-01-02T03:16:28.016Z,12.38
2023-01-02T03:21:37.247Z,11.75
2023-01-02T03:26:40.058Z,14.75
2023-01-02T03:31:45.273Z,12.30
2023-01-02T03:36:47.615Z,8.95
2023-01-02T03:41:52.542Z,9.55
2023-01-02T03:46:56.551Z,10.10
2023-01-02T03:51:55.614Z,10.52
2023-01-02T03:56:59.443Z,11.82
2023-01-02T04:02:05.658Z,11.55
2023-01-02T04:07:08.558Z,10.00
2023-01-02T04:12:12.170Z,14.88
2023-01-02T04:17:16.295Z,12.40
2023-01-02T04:22:21.898Z,10.70
2023-01-02T04:27:25.792Z,11.25
2023-01-02T04:32:29.697Z,13.73
2023-01-02T04:37:31.009Z,12.02
2023-01-02T04:42:29.771Z,11.13
2023-01-02T04:47:30.042Z,15.55
2023-01-02T04:52:35.042Z,15.77
2023-01-02T04:57:36.085Z,15.10
2023-01-02T05:02:37.677Z,17.80
2023-01-02T05:07:37.116Z,20.90
2023-01-02T05:12:36.700Z,13.65
2023-01-02T05:17:37.753Z,16.40
2023-01-02T05:22:54.191Z,19.38
2023-01-02T05:27:54.456Z,15.15
2023-01-02T05:32:55.116Z,13.40
2023-01-02T05:37:55.199Z,16.48
2023-01-02T05:42:57.826Z,16.27
2023-01-02T05:47:58.136Z,16.63
2023-01-02T05:52:57.035Z,47.67
2023-01-02T05:57:59.371Z,41.83
2023-01-02T06:02:59.605Z,24.85
2023-01-02T06:07:58.469Z,29.00
2023-01-02T06:12:57.280Z,29.00
2023-01-02T06:17:56.114Z,20.48
2023-01-02T06:22:56.995Z,25.98
2023-01-02T06:27:55.898Z,22.77
2023-01-02T06:32:54.925Z,24.88
2023-01-02T06:37:53.848Z,26.73
2023-01-02T06:43:00.025Z,44.10
2023-01-02T06:48:00.613Z,42.88
2023-01-02T06:52:59.505Z,31.80
2023-01-02T06:58:03.397Z,34.50
2023-01-02T07:03:07.693Z,25.15
2023-01-02T07:08:06.857Z,26.70
2023-01-02T07:13:07.087Z,21.52
2023-01-02T07:18:06.130Z,21.27
2023-01-02T07:23:04.952Z,22.20
2023-01-02T07:28:03.768Z,21.98
2023-01-02T07:33:04.014Z,24.65
2023-01-02T07:38:02.824Z,21.75
2023-01-02T07:43:01.628Z,24.95
2023-01-02T07:48:00.418Z,22.30
2023-01-02T07:53:00.657Z,21.58
2023-01-02T07:57:59.676Z,19.13
2023-01-02T08:02:58.500Z,19.90
2023-01-02T08:07:57.332Z,18.52
2023-01-02T08:12:57.839Z,21.73
2023-01-02T08:17:57.914Z,21.02
2023-01-02T08:22:57.867Z,25.20
2023-01-02T08:27:58.140Z,49.05
2023-01-02T08:32:56.955Z,26.45
2023-01-02T08:37:55.833Z,19.10
2023-01-02T08:42:54.652Z,14.95
2023-01-02T08:47:54.855Z,14.18
2023-01-02T08:52:53.619Z,12.50
2023-01-02T08:57:52.390Z,12.88
2023-01-02T09:02:51.428Z,15.70
2023-01-02T09:07:51.869Z,13.35
2023-01-02T09:12:50.704Z,12.88
2023-01-02T09:17:49.636Z,11.15
2023-01-02T09:22:48.374Z,13.73
2023-01-02T09:27:48.624Z,9.98
2023-01-02T09:32:49.258Z,10.10
2023-01-02T09:37:48.079Z,9.60
2023-01-02T09:42:49.488Z,11.88
2023-01-02T09:47:51.030Z,11.07
2023-01-02T09:52:55.614Z,9.43
2023-01-02T09:58:03.732Z,10.77
2023-01-02T10:03:12.391Z,7.38
2023-01-02T10:08:27.892Z,7.22
2023-01-02T10:14:16.689Z,7.03
2023-01-02T10:18:56.944Z,11.00
2023-01-02T10:24:03.859Z,7.25
2023-01-02T10:29:16.284Z,9.30
2023-01-02T10:34:18.360Z,12.18
2023-01-02T10:39:20.087Z,12.00
2023-01-02T10:44:27.132Z,10.30
2023-01-02T10:49:27.916Z,13.30
2023-01-02T10:54:26.914Z,15.20
2023-01-02T10:59:30.804Z,14.65
2023-01-02T11:04:31.569Z,11.93
2023-01-02T11:09:32.300Z,13.32
2023-01-02T11:14:34.324Z,8.73
2023-01-02T11:19:40.296Z,8.48
2023-01-02T11:24:59.556Z,8.20
2023-01-02T11:30:01.028Z,8.60
2023-01-02T11:35:02.399Z,9.18
2023-01-02T11:40:03.759Z,8.05
2023-01-02T11:45:09.433Z,11.85
2023-01-02T11:50:08.999Z,8.32
2023-01-02T11:55:20.094Z,7.35
2023-01-02T12:00:22.067Z,8.07
2023-01-02T12:10:44.112Z,6.93
2023-01-02T12:16:05.916Z,7.88
2023-01-02T12:21:12.542Z,6.68
2023-01-02T12:26:14.752Z,8.50
2023-01-02T12:31:24.501Z,10.82
2023-01-02T12:36:41.892Z,11.68
2023-01-02T12:42:01.673Z,11.32
2023-01-02T12:47:20.706Z,8.95
2023-01-02T12:52:32.740Z,10.13
2023-01-02T13:02:57.209Z,7.75
2023-01-02T13:08:00.670Z,8.55
2023-01-02T13:13:02.105Z,7.25
2023-01-02T13:18:08.791Z,12.73
2023-01-02T13:23:24.185Z,11.38
2023-01-02T13:28:24.694Z,8.55
2023-01-02T13:33:33.480Z,10.82
2023-01-02T13:38:37.421Z,33.55
2023-01-02T13:43:36.334Z,22.52
2023-01-02T13:48:39.773Z,12.73
2023-01-02T13:53:41.295Z,11.30
2023-01-02T13:58:48.880Z,12.23
2023-01-02T14:03:49.957Z,23.63
2023-01-02T14:09:11.805Z,15.52
2023-01-02T14:14:14.381Z,12.30
2023-01-02T14:19:32.669Z,17.85
2023-01-02T14:24:35.576Z,17.02
2023-01-02T14:29:46.055Z,14.10
2023-01-02T14:34:55.660Z,11.85
2023-01-02T14:39:54.773Z,26.48
2023-01-02T14:44:56.522Z,19.13
2023-01-02T14:50:01.211Z,49.17
2023-01-02T14:55:07.617Z,34.78
2023-01-02T15:00:16.964Z,31.02
2023-01-02T15:05:21.794Z,33.53
2023-01-02T15:10:22.005Z,64.30
2023-01-02T15:15:25.635Z,49.28
2023-01-02T15:20:28.041Z,40.78
2023-01-02T15:30:38.463Z,62.20
2023-01-02T15:35:38.925Z,53.67
2023-01-02T15:40:39.699Z,44.92
2023-01-02T15:45:42.941Z,39.30
2023-01-02T15:50:43.644Z,39.22
2023-01-02T15:55:43.066Z,38.50
2023-01-02T16:00:42.694Z,46.83
2023-01-02T16:05:52.547Z,44.33
2023-01-02T16:11:01.381Z,52.63
2023-01-02T16:16:15.915Z,48.47
2023-01-02T16:21:18.419Z,59.45
2023-01-02T16:26:19.275Z,62.80
2023-01-02T16:31:20.101Z,72.82
2023-01-02T16:36:26.578Z,79.43
2023-01-02T16:42:19.812Z,75.15
2023-01-02T16:47:18.641Z,81.82
2023-01-02T16:52:18.892Z,76.20
2023-01-02T16:57:20.983Z,74.10
2023-01-02T17:02:20.033Z,73.00
2023-01-02T17:07:22.594Z,78.85
2023-01-02T17:12:21.764Z,69.10
2023-01-02T17:17:20.513Z,73.78
2023-01-02T17:22:20.692Z,76.32
2023-01-02T17:27:21.811Z,89.38
2023-01-02T17:32:20.950Z,83.75
2023-01-02T17:37:23.051Z,80.70
2023-01-02T17:42:22.363Z,69.00
2023-01-02T17:47:59.362Z,66.20
2023-01-02T17:52:57.144Z,69.53
2023-01-02T17:58:02.536Z,71.00
2023-01-02T18:03:05.090Z,69.82
2023-01-02T18:08:28.880Z,77.88
2023-01-02T18:13:29.155Z,303.42
2023-01-02T18:18:32.872Z,169.48
2023-01-02T18:23:34.379Z,165.45
2023-01-02T18:28:40.730Z,256.08
2023-01-02T18:33:43.327Z,173.40
2023-01-02T18:38:48.396Z,123.47
2023-01-02T18:43:49.754Z,262.17
2023-01-02T18:48:54.763Z,140.75
2023-01-02T18:54:02.316Z,69.05
2023-01-02T18:59:07.717Z,67.25
2023-01-02T19:04:38.541Z,64.35
2023-01-02T19:09:43.965Z,66.55
2023-01-02T19:14:44.426Z,52.35
2023-01-02T19:19:43.381Z,52.75
2023-01-02T19:24:43.655Z,52.65
2023-01-02T19:29:46.963Z,49.90
2023-01-02T19:39:51.579Z,45.05
2023-01-02T19:44:52.020Z,43.15
2023-01-02T19:49:51.733Z,50.75
2023-01-02T19:54:53.096Z,65.97
2023-01-02T19:59:53.127Z,80.78
2023-01-02T20:05:02.015Z,74.03
2023-01-02T20:10:03.338Z,67.75
2023-01-02T20:15:18.647Z,47.53
2023-01-02T20:20:25.196Z,56.20
2023-01-02T20:25:26.712Z,66.75
2023-01-02T20:30:28.978Z,65.18
2023-01-02T20:35:27.789Z,66.47
2023-01-02T20:40:28.723Z,80.30
2023-01-02T20:45:27.572Z,95.95
2023-01-02T20:50:26.390Z,136.25
2023-01-02T20:55:25.377Z,99.13
2023-01-02T21:00:25.828Z,61.33
2023-01-02T21:05:24.735Z,57.03
2023-01-02T21:10:23.505Z,45.50
2023-01-02T21:15:40.099Z,51.22
2023-01-02T21:20:46.035Z,65.57
2023-01-02T21:25:45.814Z,91.93
2023-01-02T21:30:45.690Z,56.60
2023-01-02T21:35:49.855Z,45.13
2023-01-02T21:40:48.641Z,49.72
2023-01-02T21:45:47.471Z,40.85
2023-01-02T21:50:47.704Z,38.45
2023-01-02T21:55:46.443Z,54.10
2023-01-02T22:00:45.300Z,38.83
2023-01-02T22:05:44.073Z,26.70
2023-01-02T22:10:44.386Z,30.90
2023-01-02T22:15:43.376Z,27.77
2023-01-02T22:20:42.174Z,31.20
2023-01-02T22:25:41.031Z,22.60
2023-01-02T22:30:44.135Z,26.33
2023-01-02T22:35:43.226Z,21.25
2023-01-02T22:40:42.475Z,27.65
2023-01-02T22:45:46.017Z,26.45
2023-01-02T22:50:46.717Z,25.05
2023-01-02T22:55:45.496Z,32.55
2023-01-02T23:00:47.179Z,28.05
2023-01-02T23:05:46.334Z,21.90
2023-01-02T23:10:45.087Z,75.78
2023-01-02T23:15:59.202Z,24.38
2023-01-02T23:20:58.078Z,23.80
2023-01-02T23:25:56.844Z,22.08
2023-01-02T23:30:57.133Z,22.38
2023-01-02T23:35:55.945Z,24.17
2023-01-02T23:40:54.745Z,18.92
2023-01-02T23:45:53.758Z,31.00
2023-01-02T23:51:01.393Z,21.23
2023-01-02T23:56:00.383Z,19.20
